Time;durP1;ratioP1;P1;durP2;ratioP2;P2;SDS_P1;SDS_P2;PMS_P1;PMS_P2;Temp;Humidity;BMP_temperature;BMP_pressure;BME280_temperature;BME280_humidity;BME280_pressure;Samples;Min_cycle;Max_cycle;Signal;HPM_P1;HPM_P2
2023/12/08 00:01:07;;;;;;;76.07;42.90;;;-1.60;99.90;;;;;;8369573;28;20208;-66
2023/12/08 00:05:09;;;;;;;75.60;42.07;;;-1.60;99.90;;;;;;8368056;28;20214;-66
2023/12/08 00:09:11;;;;;;;70.67;39.67;;;-1.70;99.90;;;;;;8371366;28;20191;-64
2023/12/08 00:13:12;;;;;;;64.33;36.90;;;-1.80;99.90;;;;;;8368570;28;20189;-64
2023/12/08 00:17:12;;;;;;;74.60;40.77;;;-1.80;99.90;;;;;;8370153;28;20187;-64
2023/12/08 00:21:13;;;;;;;65.93;36.63;;;-1.80;99.90;;;;;;8370936;28;20244;-64
2023/12/08 00:25:15;;;;;;;67.30;37.03;;;-1.70;99.90;;;;;;8373162;28;20221;-64
2023/12/08 00:29:19;;;;;;;68.20;36.57;;;-1.60;99.90;;;;;;8368165;28;20192;-65
2023/12/08 00:33:19;;;;;;;71.60;38.40;;;-1.50;99.90;;;;;;8369755;28;20201;-65
2023/12/08 00:37:21;;;;;;;79.50;42.47;;;-1.40;99.90;;;;;;8366758;28;20201;-63
2023/12/08 00:41:23;;;;;;;77.00;42.03;;;-1.40;99.90;;;;;;8368625;28;20296;-64
2023/12/08 00:45:24;;;;;;;84.33;43.20;;;-1.30;99.90;;;;;;8370956;28;20220;-65
2023/12/08 00:49:24;;;;;;;80.60;40.77;;;-1.30;99.90;;;;;;8376487;28;20227;-66
2023/12/08 00:53:25;;;;;;;73.47;39.87;;;-1.30;99.90;;;;;;8377878;28;20192;-65
2023/12/08 00:57:26;;;;;;;71.87;38.93;;;-1.30;99.90;;;;;;8372019;28;20496;-66
2023/12/08 01:01:27;;;;;;;63.70;35.63;;;-1.40;99.90;;;;;;8377356;28;20215;-65
2023/12/08 01:05:28;;;;;;;69.33;37.67;;;-1.50;99.90;;;;;;8381807;28;20277;-63
2023/12/08 01:09:30;;;;;;;69.00;39.03;;;-1.60;99.90;;;;;;8379652;28;20237;-63
2023/12/08 01:13:31;;;;;;;76.00;40.80;;;-1.70;99.90;;;;;;8380447;28;20188;-65
2023/12/08 01:17:32;;;;;;;73.73;37.53;;;-1.80;99.90;;;;;;8376071;28;20272;-63
2023/12/08 01:21:33;;;;;;;65.07;36.40;;;-1.80;99.90;;;;;;8381023;28;20283;-63
2023/12/08 01:25:34;;;;;;;79.60;38.57;;;-2.00;99.90;;;;;;8378785;28;20251;-64
2023/12/08 01:29:35;;;;;;;77.60;40.90;;;-2.00;99.90;;;;;;8383006;28;20647;-64
2023/12/08 01:33:36;;;;;;;72.73;39.77;;;-2.10;99.90;;;;;;8378975;28;20259;-64
2023/12/08 01:37:37;;;;;;;75.60;40.97;;;-2.20;99.90;;;;;;8380402;28;20184;-64
2023/12/08 01:41:38;;;;;;;65.80;36.17;;;-2.30;99.90;;;;;;8378737;28;20203;-64
2023/12/08 01:45:39;;;;;;;71.63;36.30;;;-2.40;99.90;;;;;;8388526;28;20214;-64
2023/12/08 01:49:41;;;;;;;68.90;35.90;;;-2.50;99.90;;;;;;8378098;28;20186;-65
2023/12/08 01:53:44;;;;;;;68.27;36.70;;;-2.60;99.90;;;;;;8382042;28;20186;-65
2023/12/08 01:57:47;;;;;;;67.93;37.23;;;-2.70;99.90;;;;;;8378486;28;20256;-65
2023/12/08 02:01:48;;;;;;;74.13;38.30;;;-2.80;99.90;;;;;;8374744;28;20222;-64
2023/12/08 02:05:49;;;;;;;75.00;38.03;;;-2.80;99.90;;;;;;8369678;28;20297;-66
2023/12/08 02:09:51;;;;;;;73.90;39.43;;;-2.70;99.90;;;;;;8369645;28;20184;-63
2023/12/08 02:13:53;;;;;;;74.40;37.67;;;-2.70;99.90;;;;;;8365122;28;20170;-64
2023/12/08 02:17:56;;;;;;;63.87;34.63;;;-2.80;99.90;;;;;;8368563;28;20185;-64
2023/12/08 02:21:57;;;;;;;70.13;36.67;;;-2.90;99.90;;;;;;8373185;28;20183;-66
2023/12/08 02:25:58;;;;;;;62.03;33.40;;;-3.00;99.90;;;;;;8373691;28;20209;-63
2023/12/08 02:29:59;;;;;;;65.23;32.30;;;-3.10;99.90;;;;;;8365895;28;20188;-64
2023/12/08 02:34:01;;;;;;;63.00;33.80;;;-3.20;99.90;;;;;;8371722;28;20246;-64
2023/12/08 02:38:03;;;;;;;59.83;30.93;;;-3.20;99.90;;;;;;8364178;28;20193;-63
2023/12/08 02:42:05;;;;;;;62.03;32.57;;;-3.30;99.90;;;;;;8370315;28;20672;-64
2023/12/08 02:46:07;;;;;;;60.73;32.27;;;-3.30;99.90;;;;;;8373617;28;20247;-63
2023/12/08 02:50:08;;;;;;;60.67;31.63;;;-3.30;99.90;;;;;;8370857;28;20598;-64
2023/12/08 02:54:09;;;;;;;57.77;30.50;;;-3.40;99.90;;;;;;8370027;28;20181;-63
2023/12/08 02:58:10;;;;;;;60.30;29.90;;;-3.50;99.90;;;;;;8370225;28;20246;-64
2023/12/08 03:02:10;;;;;;;56.47;30.83;;;-3.50;99.90;;;;;;8368064;28;20211;-64
2023/12/08 03:06:11;;;;;;;75.17;38.87;;;-3.50;99.90;;;;;;8371403;28;20292;-63
2023/12/08 03:10:13;;;;;;;76.70;37.47;;;-3.50;99.90;;;;;;8368219;28;20203;-64
2023/12/08 03:14:13;;;;;;;81.40;43.80;;;-3.40;99.90;;;;;;8372564;28;20252;-64
2023/12/08 03:18:14;;;;;;;80.10;40.83;;;-3.30;99.90;;;;;;8372616;28;20433;-64
2023/12/08 03:22:15;;;;;;;66.17;36.20;;;-3.20;99.90;;;;;;8369864;28;21020;-63
2023/12/08 03:26:17;;;;;;;64.53;35.33;;;-3.30;99.90;;;;;;8371640;28;20203;-64
2023/12/08 03:30:18;;;;;;;67.33;32.30;;;-3.30;99.90;;;;;;8367793;28;20187;-62
2023/12/08 03:34:19;;;;;;;56.87;29.80;;;-3.50;99.90;;;;;;8362699;28;20177;-64
2023/12/08 03:38:20;;;;;;;51.40;27.37;;;-3.60;99.90;;;;;;8368944;28;20185;-63
2023/12/08 03:42:21;;;;;;;52.17;27.60;;;-3.80;99.90;;;;;;8370519;28;20177;-64
2023/12/08 03:46:21;;;;;;;49.80;26.83;;;-3.80;99.90;;;;;;8373025;28;20224;-64
2023/12/08 03:50:22;;;;;;;52.47;26.87;;;-3.90;99.90;;;;;;8366465;28;20176;-64
2023/12/08 03:54:23;;;;;;;55.97;28.67;;;-3.90;99.90;;;;;;8369752;28;20182;-65
2023/12/08 03:58:26;;;;;;;46.40;26.27;;;-3.90;99.90;;;;;;8369574;28;20177;-66
2023/12/08 04:02:26;;;;;;;48.53;24.93;;;-3.90;99.90;;;;;;8365559;28;20205;-64
2023/12/08 04:06:27;;;;;;;43.43;23.03;;;-3.80;99.90;;;;;;8368431;28;20273;-66
2023/12/08 04:10:28;;;;;;;61.77;28.00;;;-3.90;99.90;;;;;;8374991;28;20187;-66
2023/12/08 04:14:29;;;;;;;55.30;29.13;;;-3.80;99.90;;;;;;8370366;28;20246;-66
2023/12/08 04:18:31;;;;;;;66.50;31.67;;;-3.60;99.90;;;;;;8373238;28;20189;-65
2023/12/08 04:22:32;;;;;;;69.73;37.57;;;-3.30;99.90;;;;;;8367393;28;20220;-66
2023/12/08 04:26:32;;;;;;;74.07;36.63;;;-3.00;99.90;;;;;;8369378;28;20773;-65
2023/12/08 04:30:34;;;;;;;70.70;34.07;;;-2.70;99.90;;;;;;8370946;28;20183;-66
2023/12/08 04:34:35;;;;;;;72.20;34.97;;;-2.50;99.90;;;;;;8364302;28;20178;-66
2023/12/08 04:38:36;;;;;;;77.83;35.87;;;-2.40;99.90;;;;;;8372871;28;20181;-65
2023/12/08 04:42:37;;;;;;;74.27;34.43;;;-2.20;99.90;;;;;;8372619;28;20178;-66
2023/12/08 04:46:38;;;;;;;64.43;31.10;;;-2.10;99.90;;;;;;8373583;28;20218;-66
2023/12/08 04:50:38;;;;;;;56.77;31.80;;;-2.00;99.90;;;;;;8368379;28;20204;-65
2023/12/08 04:54:39;;;;;;;61.67;31.13;;;-2.00;99.90;;;;;;8367065;28;20178;-67
2023/12/08 04:58:40;;;;;;;63.17;32.53;;;-1.90;99.90;;;;;;8370802;28;20206;-66
2023/12/08 05:02:41;;;;;;;72.70;34.10;;;-1.80;99.90;;;;;;8371231;28;20364;-66
2023/12/08 05:06:45;;;;;;;67.30;35.13;;;-1.70;99.90;;;;;;8369378;28;20220;-67
2023/12/08 05:10:47;;;;;;;69.37;32.97;;;-1.60;99.90;;;;;;8371185;28;20180;-67
2023/12/08 05:14:48;;;;;;;65.33;32.93;;;-1.60;99.90;;;;;;8370486;28;20184;-67
2023/12/08 05:18:49;;;;;;;66.50;33.83;;;-1.60;99.90;;;;;;8370494;28;20179;-66
2023/12/08 05:22:50;;;;;;;54.23;31.10;;;-1.60;99.90;;;;;;8372179;28;20248;-67
2023/12/08 05:26:52;;;;;;;70.30;35.47;;;-1.70;99.90;;;;;;8369977;28;20312;-67
2023/12/08 05:30:56;;;;;;;63.73;33.37;;;-1.70;99.90;;;;;;8368876;28;20193;-67
2023/12/08 05:34:56;;;;;;;64.03;31.37;;;-1.70;99.90;;;;;;8371478;28;20183;-67
2023/12/08 05:38:57;;;;;;;59.70;30.93;;;-1.70;99.90;;;;;;8370953;28;20184;-66
2023/12/08 05:42:58;;;;;;;62.63;33.37;;;-1.90;99.90;;;;;;8384148;28;20220;-67
2023/12/08 05:46:59;;;;;;;55.77;30.47;;;-2.00;99.90;;;;;;8376918;28;20297;-65
2023/12/08 05:51:00;;;;;;;62.50;32.83;;;-2.10;99.90;;;;;;8370896;28;20190;-67
2023/12/08 05:55:01;;;;;;;64.40;34.07;;;-2.10;99.90;;;;;;8376692;28;20792;-66
2023/12/08 05:59:03;;;;;;;57.87;33.13;;;-2.20;99.90;;;;;;8374629;28;20190;-66
2023/12/08 06:03:03;;;;;;;62.67;31.43;;;-2.30;99.90;;;;;;8371757;28;20200;-66
2023/12/08 06:07:04;;;;;;;54.73;29.20;;;-2.30;99.90;;;;;;8372349;28;20527;-67
2023/12/08 06:11:06;;;;;;;118.80;62.57;;;-2.30;99.90;;;;;;8376144;28;20183;-67
2023/12/08 06:15:09;;;;;;;66.87;37.63;;;-2.40;99.90;;;;;;8374095;28;20181;-66
2023/12/08 06:19:10;;;;;;;56.40;31.40;;;-2.50;99.90;;;;;;8372345;28;20177;-67
2023/12/08 06:23:11;;;;;;;55.53;31.00;;;-2.50;99.90;;;;;;8373812;28;20264;-66
2023/12/08 06:27:12;;;;;;;68.63;37.90;;;-2.50;99.90;;;;;;8377798;28;20235;-66
2023/12/08 06:31:12;;;;;;;62.53;32.33;;;-2.50;99.90;;;;;;8375699;28;20194;-66
2023/12/08 06:35:14;;;;;;;57.27;32.43;;;-2.50;99.90;;;;;;8377302;28;20190;-65
2023/12/08 06:39:16;;;;;;;63.37;38.43;;;-2.50;99.90;;;;;;8373077;28;20186;-67
2023/12/08 06:43:17;;;;;;;71.00;31.67;;;-2.50;99.90;;;;;;8367807;28;20237;-66
2023/12/08 06:47:19;;;;;;;68.37;37.47;;;-2.60;99.90;;;;;;8368625;28;20232;-67
2023/12/08 06:51:20;;;;;;;55.07;30.20;;;-2.60;99.90;;;;;;8375739;28;20275;-66
2023/12/08 06:55:21;;;;;;;56.70;27.53;;;-2.60;99.90;;;;;;8360746;28;20193;-67
2023/12/08 06:59:21;;;;;;;50.07;25.80;;;-2.60;99.90;;;;;;8372572;28;20194;-67
2023/12/08 07:03:22;;;;;;;56.47;28.87;;;-2.70;99.90;;;;;;8374198;28;20472;-67
2023/12/08 07:07:23;;;;;;;55.03;29.63;;;-2.60;99.90;;;;;;8370144;28;20216;-67
2023/12/08 07:11:23;;;;;;;64.63;29.70;;;-2.50;99.90;;;;;;8368585;28;20458;-67
2023/12/08 07:15:24;;;;;;;55.07;26.10;;;-2.50;99.90;;;;;;8366815;28;20186;-69
2023/12/08 07:19:25;;;;;;;52.00;27.20;;;-2.50;99.90;;;;;;8364338;28;20187;-68
2023/12/08 07:23:26;;;;;;;59.53;29.50;;;-2.50;99.90;;;;;;8372016;28;20580;-68
2023/12/08 07:27:28;;;;;;;57.83;27.53;;;-2.50;99.90;;;;;;8372076;28;20224;-70
2023/12/08 07:31:28;;;;;;;53.30;26.27;;;-2.50;99.90;;;;;;8372300;28;20179;-69
2023/12/08 07:35:31;;;;;;;49.40;26.90;;;-2.40;99.90;;;;;;8364905;28;20184;-67
2023/12/08 07:39:32;;;;;;;48.43;25.23;;;-2.30;99.90;;;;;;8366696;28;20173;-67
2023/12/08 07:43:35;;;;;;;60.97;30.83;;;-2.20;99.90;;;;;;8371058;28;20204;-67
2023/12/08 07:47:37;;;;;;;67.60;36.37;;;-2.20;99.90;;;;;;8369992;28;20207;-72
2023/12/08 07:51:40;;;;;;;61.80;29.13;;;-2.10;99.90;;;;;;8384036;28;20188;-72
2023/12/08 07:55:43;;;;;;;56.83;29.43;;;-2.00;99.90;;;;;;8379031;28;20210;-72
2023/12/08 07:59:44;;;;;;;46.10;23.50;;;-1.80;99.90;;;;;;8373156;28;20203;-72
2023/12/08 08:03:47;;;;;;;47.70;25.13;;;-1.80;99.90;;;;;;8383256;28;20190;-72
2023/12/08 08:07:49;;;;;;;69.20;36.93;;;-1.70;99.90;;;;;;8373100;28;20303;-72
2023/12/08 08:11:53;;;;;;;54.83;27.37;;;-1.70;99.90;;;;;;8392120;28;20213;-73
2023/12/08 08:15:54;;;;;;;47.67;23.90;;;-1.60;99.90;;;;;;8379113;28;20194;-72
2023/12/08 08:19:57;;;;;;;48.10;24.13;;;-1.60;99.90;;;;;;8378780;28;20178;-71
2023/12/08 08:23:59;;;;;;;44.23;24.13;;;-1.50;99.90;;;;;;8379922;28;20270;-72
2023/12/08 08:28:01;;;;;;;44.47;23.63;;;-1.50;99.90;;;;;;8379805;28;20206;-72
2023/12/08 08:32:02;;;;;;;43.83;23.53;;;-1.40;99.90;;;;;;8377538;28;20251;-72
2023/12/08 08:36:06;;;;;;;52.63;28.63;;;-1.30;99.90;;;;;;8378341;28;20434;-72
2023/12/08 08:40:09;;;;;;;49.37;24.20;;;-1.20;99.90;;;;;;8377679;28;20184;-73
2023/12/08 08:44:11;;;;;;;37.80;19.97;;;-1.00;99.90;;;;;;8363301;28;20205;-72
2023/12/08 08:48:13;;;;;;;40.20;21.63;;;-0.90;99.90;;;;;;8379265;28;20216;-72
2023/12/08 08:52:13;;;;;;;40.63;20.07;;;-0.90;99.90;;;;;;8381337;28;20219;-72
2023/12/08 08:56:16;;;;;;;38.93;19.70;;;-0.80;99.90;;;;;;8374290;28;20193;-72
2023/12/08 09:00:18;;;;;;;33.33;18.70;;;-0.70;99.90;;;;;;8377631;28;20200;-71
2023/12/08 09:04:20;;;;;;;39.90;21.30;;;-0.60;99.90;;;;;;8381990;28;20247;-72
2023/12/08 09:08:22;;;;;;;50.43;23.50;;;-0.50;99.90;;;;;;8376490;28;20247;-71
2023/12/08 09:12:24;;;;;;;40.10;21.13;;;-0.50;99.90;;;;;;8386568;28;20209;-71
2023/12/08 09:16:25;;;;;;;31.47;17.37;;;-0.40;99.90;;;;;;8388412;28;20265;-71
2023/12/08 09:20:26;;;;;;;31.37;17.80;;;-0.40;99.90;;;;;;8389884;28;20192;-72
2023/12/08 09:24:28;;;;;;;43.17;22.83;;;-0.30;99.90;;;;;;8394352;28;20200;-72
2023/12/08 09:28:32;;;;;;;41.13;21.93;;;-0.30;99.90;;;;;;8391105;28;20219;-71
2023/12/08 09:32:35;;;;;;;33.33;18.07;;;-0.20;99.90;;;;;;8382638;28;20190;-72
2023/12/08 09:36:36;;;;;;;33.90;18.03;;;-0.20;99.90;;;;;;8385355;28;20185;-71
2023/12/08 09:40:43;;;;;;;35.17;19.37;;;-0.20;99.90;;;;;;8383310;28;20192;-73
2023/12/08 09:44:48;;;;;;;32.43;19.33;;;-0.20;99.90;;;;;;8384141;28;20284;-70
2023/12/08 09:48:51;;;;;;;29.20;17.80;;;-0.20;99.90;;;;;;8365241;28;20190;-71
2023/12/08 09:52:54;;;;;;;33.87;20.53;;;-0.20;99.90;;;;;;8384002;28;20260;-70
2023/12/08 09:56:59;;;;;;;37.33;20.70;;;-0.20;99.90;;;;;;8381711;28;20209;-71
2023/12/08 10:01:00;;;;;;;38.27;20.37;;;-0.20;99.90;;;;;;8378649;28;20197;-71
2023/12/08 10:05:03;;;;;;;39.87;20.83;;;-0.20;99.90;;;;;;8389310;28;20188;-73
2023/12/08 10:09:06;;;;;;;39.63;20.77;;;-0.10;99.90;;;;;;8379241;28;20508;-71
2023/12/08 10:13:07;;;;;;;41.30;22.17;;;-0.20;99.90;;;;;;8381831;28;20257;-71
2023/12/08 10:17:08;;;;;;;37.23;20.03;;;-0.20;99.90;;;;;;8387780;28;20321;-72
2023/12/08 10:21:14;;;;;;;42.53;21.63;;;-0.10;99.90;;;;;;8373935;28;20204;-69
2023/12/08 10:25:18;;;;;;;36.97;21.27;;;-0.20;99.90;;;;;;8370566;28;20190;-69
2023/12/08 10:29:19;;;;;;;36.00;19.23;;;-0.20;99.90;;;;;;8371045;28;20247;-70
2023/12/08 10:33:20;;;;;;;51.50;25.70;;;-0.30;99.90;;;;;;8372501;28;20208;-67
2023/12/08 10:37:21;;;;;;;46.80;23.07;;;-0.20;99.90;;;;;;8373432;28;20181;-70
2023/12/08 10:41:23;;;;;;;38.80;20.03;;;0.00;99.90;;;;;;8376610;28;20283;-69
2023/12/08 10:45:25;;;;;;;34.43;20.10;;;-0.10;99.90;;;;;;8375172;28;20216;-70
2023/12/08 10:49:27;;;;;;;44.13;21.27;;;-0.10;99.90;;;;;;8374915;28;20605;-69
2023/12/08 10:53:28;;;;;;;35.53;19.07;;;0.10;99.90;;;;;;8374503;28;20180;-68
2023/12/08 10:57:29;;;;;;;40.77;22.67;;;0.10;99.90;;;;;;8370418;28;20605;-70
2023/12/08 11:01:32;;;;;;;41.03;22.60;;;0.20;99.90;;;;;;8375698;28;20200;-69
2023/12/08 11:05:38;;;;;;;41.03;23.37;;;0.40;99.90;;;;;;8371170;28;20296;-67
2023/12/08 11:09:40;;;;;;;41.13;26.07;;;0.60;99.90;;;;;;8371593;28;20177;-69
2023/12/08 11:13:46;;;;;;;41.00;21.57;;;0.80;99.90;;;;;;8360296;28;20181;-71
2023/12/08 11:18:00;;;;;;;44.07;22.87;;;0.90;99.90;;;;;;8373356;28;20185;-71
2023/12/08 11:22:01;;;;;;;46.73;25.13;;;0.90;99.90;;;;;;8371572;28;20195;-68
2023/12/08 11:26:18;;;;;;;46.40;25.30;;;0.90;99.90;;;;;;8369565;28;20202;-70
2023/12/08 11:30:37;;;;;;;49.57;28.03;;;0.90;99.90;;;;;;8369651;28;20197;-71
2023/12/08 11:35:02;;;;;;;42.77;23.57;;;0.80;99.90;;;;;;8369645;28;20223;-71
2023/12/08 11:39:43;;;;;;;45.17;24.43;;;0.80;99.90;;;;;;8367481;28;20177;-70
2023/12/08 11:43:45;;;;;;;48.20;23.70;;;0.80;99.90;;;;;;8370291;28;20224;-69
2023/12/08 11:47:47;;;;;;;49.30;26.50;;;0.90;99.90;;;;;;8381629;28;20205;-70
2023/12/08 11:52:25;;;;;;;50.60;28.07;;;0.90;99.90;;;;;;8373393;28;20181;-70
2023/12/08 11:56:42;;;;;;;37.40;22.67;;;0.90;99.90;;;;;;8376552;28;20182;-71
2023/12/08 12:00:46;;;;;;;46.47;24.40;;;0.90;99.90;;;;;;8375853;28;20261;-71
2023/12/08 12:04:48;;;;;;;39.40;22.30;;;0.90;99.90;;;;;;8377311;28;20205;-71
2023/12/08 12:08:50;;;;;;;38.37;22.33;;;0.80;99.90;;;;;;8373423;28;20219;-70
2023/12/08 12:13:02;;;;;;;45.73;23.67;;;0.70;99.90;;;;;;8378978;28;20174;-69
2023/12/08 12:17:05;;;;;;;43.83;23.60;;;0.80;99.90;;;;;;8377739;28;20205;-69
2023/12/08 12:21:08;;;;;;;43.80;22.20;;;0.80;99.90;;;;;;8369194;28;20181;-69
2023/12/08 12:25:18;;;;;;;42.57;23.10;;;0.80;99.90;;;;;;8373497;28;20203;-70
2023/12/08 12:29:20;;;;;;;43.53;21.47;;;0.70;99.90;;;;;;8370701;28;20182;-70
2023/12/08 12:33:21;;;;;;;47.67;24.07;;;0.60;99.90;;;;;;8376423;28;20186;-69
2023/12/08 12:37:22;;;;;;;42.23;20.67;;;0.60;99.90;;;;;;8373681;28;20195;-72
2023/12/08 12:41:24;;;;;;;44.13;21.97;;;0.60;99.90;;;;;;8371380;28;20192;-72
2023/12/08 12:45:27;;;;;;;40.67;21.50;;;0.70;99.90;;;;;;8386479;28;20227;-70
2023/12/08 12:49:28;;;;;;;45.00;21.03;;;0.60;99.90;;;;;;8366513;28;20192;-71
2023/12/08 12:53:29;;;;;;;44.70;23.63;;;0.60;99.90;;;;;;8369671;28;20185;-71
2023/12/08 12:57:48;;;;;;;40.70;21.70;;;0.70;99.90;;;;;;8371662;28;20180;-72
2023/12/08 13:01:50;;;;;;;43.37;23.77;;;0.60;99.90;;;;;;8369344;28;20265;-71
2023/12/08 13:05:53;;;;;;;46.30;23.47;;;0.70;99.90;;;;;;8373324;28;20212;-71
2023/12/08 13:09:59;;;;;;;50.73;24.70;;;0.60;99.90;;;;;;8369111;28;20188;-71
2023/12/08 13:14:00;;;;;;;41.33;22.27;;;0.50;99.90;;;;;;8367955;28;20208;-71
2023/12/08 13:18:02;;;;;;;61.43;28.63;;;0.50;99.90;;;;;;8370606;28;20269;-70
2023/12/08 13:22:03;;;;;;;52.20;26.43;;;0.50;99.90;;;;;;8368453;28;20185;-70
2023/12/08 13:26:05;;;;;;;55.47;26.97;;;0.50;99.90;;;;;;8370650;28;20534;-71
2023/12/08 13:30:07;;;;;;;59.30;29.73;;;0.40;99.90;;;;;;8378627;28;20199;-70
2023/12/08 13:34:09;;;;;;;61.37;31.73;;;0.40;99.90;;;;;;8366546;28;20182;-71
2023/12/08 13:38:11;;;;;;;66.97;32.13;;;0.30;99.90;;;;;;8368581;28;20181;-70
2023/12/08 13:42:11;;;;;;;64.23;30.53;;;0.30;99.90;;;;;;8368346;28;20211;-70
2023/12/08 13:46:12;;;;;;;56.40;26.57;;;0.20;99.90;;;;;;8366548;28;20209;-70
2023/12/08 13:50:14;;;;;;;51.50;25.30;;;0.10;99.90;;;;;;8369521;28;20189;-71
2023/12/08 13:54:15;;;;;;;104.33;61.80;;;0.00;99.90;;;;;;8367952;28;20301;-71
2023/12/08 13:58:16;;;;;;;131.20;58.20;;;-0.10;99.90;;;;;;8369794;28;20188;-69
2023/12/08 14:02:17;;;;;;;58.67;30.03;;;-0.10;99.90;;;;;;8373339;28;20205;-70
2023/12/08 14:06:19;;;;;;;91.37;48.30;;;-0.20;99.90;;;;;;8374614;28;20274;-71
2023/12/08 14:10:21;;;;;;;61.63;26.30;;;-0.20;99.90;;;;;;8376617;28;20280;-70
2023/12/08 14:14:22;;;;;;;68.87;31.53;;;-0.20;99.90;;;;;;8380718;28;20244;-71
2023/12/08 14:18:23;;;;;;;65.43;33.80;;;-0.30;99.90;;;;;;8376692;28;20235;-71
2023/12/08 14:22:24;;;;;;;120.80;45.47;;;-0.40;99.90;;;;;;8370326;28;20459;-71
2023/12/08 14:26:25;;;;;;;51.43;24.47;;;-0.40;99.90;;;;;;8374019;28;20236;-71
2023/12/08 14:30:25;;;;;;;74.97;36.53;;;-0.50;99.90;;;;;;8372570;28;20189;-71
2023/12/08 14:34:26;;;;;;;85.43;38.53;;;-0.60;99.90;;;;;;8371217;28;20181;-71
2023/12/08 14:38:27;;;;;;;67.97;32.27;;;-0.60;99.90;;;;;;8367206;28;20782;-70
2023/12/08 14:42:28;;;;;;;70.30;31.37;;;-0.70;99.90;;;;;;8372752;28;20197;-69
2023/12/08 14:46:29;;;;;;;62.07;29.07;;;-0.70;99.90;;;;;;8369137;28;20355;-71
2023/12/08 14:50:32;;;;;;;64.70;31.00;;;-0.70;99.90;;;;;;8369653;28;20184;-71
2023/12/08 14:54:37;;;;;;;59.93;26.90;;;-0.80;99.90;;;;;;8372635;28;20185;-72
2023/12/08 14:58:38;;;;;;;50.10;26.97;;;-0.80;99.90;;;;;;8374460;28;20177;-69
2023/12/08 15:02:39;;;;;;;66.77;28.90;;;-0.80;99.90;;;;;;8374070;28;20223;-69
2023/12/08 15:06:42;;;;;;;86.17;39.00;;;-0.80;99.90;;;;;;8370100;28;20215;-69
2023/12/08 15:10:43;;;;;;;93.63;42.33;;;-0.90;99.90;;;;;;8373030;28;20184;-69
2023/12/08 15:14:44;;;;;;;72.60;33.77;;;-0.90;99.90;;;;;;8373496;28;20200;-67
2023/12/08 15:18:45;;;;;;;54.17;27.27;;;-0.90;99.90;;;;;;8373251;28;20189;-67
2023/12/08 15:22:45;;;;;;;67.00;30.77;;;-0.90;99.90;;;;;;8371340;28;20232;-67
2023/12/08 15:26:47;;;;;;;81.53;36.37;;;-0.90;99.90;;;;;;8372647;28;20257;-67
2023/12/08 15:30:47;;;;;;;58.87;29.17;;;-1.00;99.90;;;;;;8372063;28;20191;-65
2023/12/08 15:34:49;;;;;;;61.90;27.43;;;-1.00;99.90;;;;;;8365399;28;20205;-65
2023/12/08 15:38:49;;;;;;;47.20;23.83;;;-1.00;99.90;;;;;;8367408;28;20185;-63
2023/12/08 15:42:50;;;;;;;52.47;27.67;;;-1.00;99.90;;;;;;8374169;28;20444;-64
2023/12/08 15:46:51;;;;;;;67.67;33.73;;;-0.90;99.90;;;;;;8370157;28;20219;-64
2023/12/08 15:50:52;;;;;;;65.53;33.37;;;-0.90;99.90;;;;;;8367740;28;20188;-65
2023/12/08 15:54:53;;;;;;;56.43;27.07;;;-0.90;99.90;;;;;;8371100;28;20178;-64
2023/12/08 15:58:56;;;;;;;49.43;25.60;;;-0.90;99.90;;;;;;8372448;28;20181;-64
2023/12/08 16:02:58;;;;;;;64.73;33.43;;;-0.90;99.90;;;;;;8367283;28;20204;-63
2023/12/08 16:07:00;;;;;;;63.23;31.50;;;-0.90;99.90;;;;;;8372876;28;20217;-65
2023/12/08 16:11:02;;;;;;;65.13;32.50;;;-0.90;99.90;;;;;;8371020;28;20247;-64
2023/12/08 16:15:05;;;;;;;71.00;34.03;;;-1.00;99.90;;;;;;8366197;28;20180;-64
2023/12/08 16:19:06;;;;;;;120.43;50.87;;;-1.00;99.90;;;;;;8370076;28;20188;-64
2023/12/08 16:23:07;;;;;;;68.87;33.80;;;-1.00;99.90;;;;;;8366362;28;20181;-63
2023/12/08 16:27:08;;;;;;;79.40;35.17;;;-1.00;99.90;;;;;;8370013;28;20201;-66
2023/12/08 16:31:09;;;;;;;68.33;33.63;;;-1.00;99.90;;;;;;8369548;28;20268;-64
2023/12/08 16:35:13;;;;;;;61.23;30.57;;;-1.10;99.90;;;;;;8369136;28;20192;-64
2023/12/08 16:39:13;;;;;;;58.97;27.37;;;-1.10;99.90;;;;;;8364848;28;20192;-64
2023/12/08 16:43:14;;;;;;;45.20;24.23;;;-1.10;99.90;;;;;;8369218;28;20197;-64
2023/12/08 16:47:15;;;;;;;54.63;25.73;;;-1.10;99.90;;;;;;8369500;28;20216;-64
2023/12/08 16:51:17;;;;;;;50.43;25.03;;;-1.10;99.90;;;;;;8369197;28;20181;-64
2023/12/08 16:55:18;;;;;;;41.53;22.17;;;-1.10;99.90;;;;;;8367166;28;20292;-65
2023/12/08 16:59:22;;;;;;;34.20;19.47;;;-1.10;99.90;;;;;;8364838;28;20181;-64
2023/12/08 17:03:23;;;;;;;52.40;27.20;;;-1.10;99.90;;;;;;8366838;28;20197;-66
2023/12/08 17:07:24;;;;;;;61.30;31.80;;;-1.10;99.90;;;;;;8370084;28;20234;-65
2023/12/08 17:11:24;;;;;;;60.40;34.83;;;-1.10;99.90;;;;;;8372668;28;20185;-65
2023/12/08 17:15:26;;;;;;;64.97;37.27;;;-1.00;99.90;;;;;;8368184;28;20197;-64
2023/12/08 17:19:27;;;;;;;63.57;34.27;;;-1.10;99.90;;;;;;8366222;28;20185;-66
2023/12/08 17:23:28;;;;;;;56.43;30.13;;;-1.00;99.90;;;;;;8367892;28;20280;-65
2023/12/08 17:27:29;;;;;;;51.37;29.27;;;-1.00;99.90;;;;;;8368924;28;20630;-65
2023/12/08 17:31:30;;;;;;;43.97;24.97;;;-1.00;99.90;;;;;;8375660;28;20184;-65
2023/12/08 17:35:31;;;;;;;44.57;23.27;;;-1.10;99.90;;;;;;8378847;28;20177;-66
2023/12/08 17:39:34;;;;;;;38.27;22.00;;;-1.10;99.90;;;;;;8375398;28;20283;-67
2023/12/08 17:43:37;;;;;;;35.80;20.67;;;-1.10;99.90;;;;;;8376877;28;20201;-68
2023/12/08 17:47:38;;;;;;;60.80;30.10;;;-1.10;99.90;;;;;;8378294;28;20611;-67
2023/12/08 17:51:39;;;;;;;51.63;26.63;;;-1.10;99.90;;;;;;8374607;28;20192;-67
2023/12/08 17:55:39;;;;;;;58.17;31.23;;;-1.10;99.90;;;;;;8374847;28;20195;-67
2023/12/08 17:59:40;;;;;;;54.97;29.90;;;-1.10;99.90;;;;;;8371623;28;20280;-67
2023/12/08 18:03:41;;;;;;;63.93;33.80;;;-1.10;99.90;;;;;;8374553;28;20219;-68
2023/12/08 18:07:43;;;;;;;83.47;44.50;;;-1.10;99.90;;;;;;8374235;28;20216;-67
2023/12/08 18:11:45;;;;;;;72.33;36.37;;;-1.10;99.90;;;;;;8377544;28;20383;-68
2023/12/08 18:15:47;;;;;;;53.20;28.90;;;-1.10;99.90;;;;;;8372889;28;20203;-68
2023/12/08 18:19:48;;;;;;;51.67;28.83;;;-1.10;99.90;;;;;;8376665;28;20214;-69
2023/12/08 18:23:49;;;;;;;61.50;32.67;;;-1.10;99.90;;;;;;8374976;28;20196;-68
2023/12/08 18:27:51;;;;;;;57.57;31.47;;;-1.10;99.90;;;;;;8375282;28;20207;-68
2023/12/08 18:31:52;;;;;;;48.03;26.93;;;-1.10;99.90;;;;;;8365620;28;20265;-68
2023/12/08 18:35:52;;;;;;;44.00;23.60;;;-1.10;99.90;;;;;;8375751;28;20188;-68
2023/12/08 18:39:53;;;;;;;51.37;26.07;;;-1.10;99.90;;;;;;8370095;28;20189;-68
2023/12/08 18:44:00;;;;;;;41.83;23.50;;;-1.10;99.90;;;;;;8373287;28;20200;-68
2023/12/08 18:48:01;;;;;;;40.80;23.47;;;-1.10;99.90;;;;;;8379327;28;20217;-69
2023/12/08 18:52:03;;;;;;;40.80;23.27;;;-1.10;99.90;;;;;;8369935;28;20193;-68
2023/12/08 18:56:05;;;;;;;38.77;21.50;;;-1.10;99.90;;;;;;8369038;28;20243;-68
2023/12/08 19:00:08;;;;;;;46.30;24.50;;;-1.10;99.90;;;;;;8370142;28;20205;-66
2023/12/08 19:04:10;;;;;;;67.87;31.80;;;-1.10;99.90;;;;;;8374889;28;20189;-64
2023/12/08 19:08:12;;;;;;;89.50;38.70;;;-1.10;99.90;;;;;;8374420;28;20216;-65
2023/12/08 19:12:16;;;;;;;88.73;39.57;;;-1.10;99.90;;;;;;8373762;28;20186;-66
2023/12/08 19:16:18;;;;;;;74.80;34.60;;;-1.10;99.90;;;;;;8370841;28;20193;-65
2023/12/08 19:20:19;;;;;;;60.77;31.50;;;-1.10;99.90;;;;;;8370575;28;20499;-65
2023/12/08 19:24:19;;;;;;;58.33;30.17;;;-1.10;99.90;;;;;;8365671;28;20185;-66
2023/12/08 19:28:22;;;;;;;85.03;44.20;;;-1.10;99.90;;;;;;8372256;28;20225;-65
2023/12/08 19:32:24;;;;;;;108.93;52.80;;;-1.10;99.90;;;;;;8362091;28;20181;-64
2023/12/08 19:36:25;;;;;;;106.33;50.83;;;-1.10;99.90;;;;;;8373239;28;20219;-66
2023/12/08 19:40:26;;;;;;;95.57;49.00;;;-1.10;99.90;;;;;;8372501;28;20194;-66
2023/12/08 19:44:27;;;;;;;64.07;33.10;;;-1.10;99.90;;;;;;8374769;28;20262;-64
2023/12/08 19:48:28;;;;;;;47.17;26.17;;;-1.10;99.90;;;;;;8373235;28;20212;-67
2023/12/08 19:52:31;;;;;;;48.80;24.30;;;-1.20;99.90;;;;;;8373893;28;20813;-67
2023/12/08 19:56:32;;;;;;;42.37;24.20;;;-1.20;99.90;;;;;;8361912;28;20188;-64
2023/12/08 20:00:33;;;;;;;42.40;23.10;;;-1.30;99.90;;;;;;8374576;28;20208;-64
2023/12/08 20:04:34;;;;;;;47.33;24.87;;;-1.20;99.90;;;;;;8370150;28;20185;-65
2023/12/08 20:08:36;;;;;;;45.50;24.93;;;-1.20;99.90;;;;;;8375971;28;20226;-68
2023/12/08 20:12:38;;;;;;;46.47;24.83;;;-1.20;99.90;;;;;;8372853;28;20478;-67
2023/12/08 20:16:42;;;;;;;43.17;24.00;;;-1.20;99.90;;;;;;8370553;28;20188;-68
2023/12/08 20:20:43;;;;;;;64.40;34.23;;;-1.10;99.90;;;;;;8367989;28;20181;-67
2023/12/08 20:24:44;;;;;;;55.93;30.70;;;-1.10;99.90;;;;;;8373141;28;20191;-68
2023/12/08 20:28:46;;;;;;;52.90;30.50;;;-1.10;99.90;;;;;;8367087;28;20240;-68